Cincinnati, OH (45241)

6:39 AM EST on January 22, 2017 (GMT -0500)
Tennyson / Sharon Woods | | Change Station
Active Advisory: Special Statement

Elev 744 ft 39.29 °N, 84.39 °W | Updated 3 minutes ago

Mostly Cloudy
Mostly Cloudy
45.4 °F
Feels Like 45 °F
N
0.0
Wind Variable Wind from East
Gusts 0.0 mph

Today
High -- | Low -- °F
--% Chance of Precip.
Yesterday
High -- | Low -- °F
Precip. -- in
Pressure 29.60 in
Visibility 7.0 miles
Clouds Mostly Cloudy 200 ft
Windchill 45 °F
Dew Point 44 °F
Humidity 96%
Rainfall 0.00 in
Snow Depth Not available.
7:52 AM 5:46 PM
Waning Crescent, 27% visible
SPECI KHAO 221131Z AUTO 00000KT 7SM BKN002 03/03 A2960 RMK AO2 T00330033
Pressure 29.60 in
Visibility 7.0 miles
Clouds Mostly Cloudy 200 ft
Windchill 45 °F
Dew Point 44 °F
Humidity 96%
Rainfall 0.00 in
Snow Depth Not available.
7:52 AM 5:46 PM
Waning Crescent, 27% visible
SPECI KHAO 221131Z AUTO 00000KT 7SM BKN002 03/03 A2960 RMK AO2 T00330033

Get Your Daily Forecast Email!

Thanks for signing up!

Be on the lookout for a verification email in your inbox.

You'll start receiving the daily forecast at 8 AM.

×

10-Day Weather Forecast

Almanac

Astronomy

Jan. 22, 2017 Rise Set
Actual Time
Civil Twilight
Nautical Twilight
Astronomical Twilight
Moon
Length of Visible Light
Length of Day
Tomorrow will be .
, % of the Moon is Illuminated

Today's Extremes

State Highs State Lows

Community

WunderPhotos

Upload Photos

1,962,540 photos uploaded!

WunderBlog® & News

Nearby

Air Quality

  Air Quality AQ Index Pollutant
Not available.

Snow Depth

Station Depth Elevation

Earthquake Activity

City Distance Mag. Time & Date
Minimum magnitude displayed is 2.5.

Coastal Water Temperatures

Place Temperature

Stations

Nearby Weather Stations

Station Location Temp. Windchill Dew Point Humidity Wind Precip. Elev Updated Type
                   

Watches & Warnings

Special Statement
Issued: 5:50 AM EST Jan. 22, 2017 – National Weather Service

... Patchy dense fog this morning...

Patchy dense fog can be expected through mid morning. Visibilities
will be reduced to below a quarter of a mile at times. Please use
extra caution if traveling this morning.


550 am EST sun Jan 22 2017

... Patchy dense fog this morning...

Patchy dense fog can be expected through mid morning. Visibilities
will be reduced to below a quarter of a mile at times. Please use
extra caution if traveling this morning.



420 am EST sun Jan 22 2017

... Patchy dense fog this morning...

Patchy dense fog will be possible this morning. Visibilities will
be reduced to below a quarter of a mile at times. Please use
extra caution if traveling this morning.




420 am EST sun Jan 22 2017

... Patchy dense fog this morning...

Patchy dense fog will be possible this morning. Visibilities will
be reduced to below a quarter of a mile at times. Please use
extra caution if traveling this morning.